createdAt,value
2022-08-17T00:01:52.099Z,38.46
2022-08-17T00:04:24.564Z,38.61
2022-08-17T00:06:55.305Z,38.74
2022-08-17T00:09:26.112Z,38.82
2022-08-17T00:12:41.774Z,38.79
2022-08-17T00:14:50.470Z,38.70
2022-08-17T00:17:21.620Z,38.95
2022-08-17T00:19:52.518Z,39.06
2022-08-17T00:22:32.061Z,39.32
2022-08-17T00:25:09.182Z,39.39
2022-08-17T00:27:40.267Z,39.60
2022-08-17T00:30:14.324Z,39.40
2022-08-17T00:33:12.568Z,39.48
2022-08-17T00:35:39.626Z,39.50
2022-08-17T00:38:12.243Z,39.66
2022-08-17T00:40:46.268Z,39.42
2022-08-17T00:43:21.907Z,39.42
2022-08-17T00:45:52.770Z,39.53
2022-08-17T00:48:29.883Z,39.42
2022-08-17T00:51:08.914Z,39.55
2022-08-17T00:53:44.938Z,39.37
2022-08-17T00:56:22.052Z,39.55
2022-08-17T00:58:55.790Z,39.51
2022-08-17T01:01:27.790Z,39.40
2022-08-17T01:04:00.004Z,39.31
2022-08-17T01:06:32.991Z,39.43
2022-08-17T01:09:06.037Z,39.44
2022-08-17T01:11:38.065Z,39.52
2022-08-17T01:14:09.493Z,39.38
2022-08-17T01:16:41.192Z,39.54
2022-08-17T01:19:16.998Z,39.43
2022-08-17T01:21:56.397Z,39.42
2022-08-17T01:24:26.009Z,39.48
2022-08-17T01:26:57.742Z,39.42
2022-08-17T01:29:30.867Z,39.35
2022-08-17T01:32:05.671Z,39.52
2022-08-17T01:34:42.831Z,39.35
2022-08-17T01:37:15.845Z,39.49
2022-08-17T01:39:50.648Z,39.24
2022-08-17T01:42:27.727Z,39.21
2022-08-17T01:45:03.700Z,39.59
2022-08-17T01:47:36.134Z,39.55
2022-08-17T01:50:16.901Z,39.62
2022-08-17T01:52:49.864Z,39.69
2022-08-17T01:55:27.406Z,39.32
2022-08-17T01:57:58.635Z,39.58
2022-08-17T02:00:46.813Z,39.43
2022-08-17T02:03:21.778Z,39.12
2022-08-17T02:05:54.383Z,38.99
2022-08-17T02:08:39.547Z,39.28
2022-08-17T02:11:20.023Z,39.18
2022-08-17T02:14:02.405Z,39.26
2022-08-17T02:16:37.744Z,39.19
2022-08-17T02:19:11.797Z,39.33
2022-08-17T02:21:44.390Z,38.94
2022-08-17T02:24:58.306Z,38.97
2022-08-17T02:27:11.378Z,38.85
2022-08-17T02:29:42.168Z,38.71
2022-08-17T02:32:28.256Z,39.03
2022-08-17T02:35:00.941Z,38.77
2022-08-17T02:37:32.786Z,38.68
2022-08-17T02:40:04.788Z,38.70
2022-08-17T02:42:39.749Z,38.93
2022-08-17T02:45:14.792Z,38.70
2022-08-17T02:47:45.755Z,38.83
2022-08-17T02:50:19.224Z,38.74
2022-08-17T02:52:51.553Z,38.87
2022-08-17T02:55:37.682Z,39.01
2022-08-17T02:58:10.737Z,39.07
2022-08-17T03:00:44.213Z,39.33
2022-08-17T03:03:18.963Z,39.51
2022-08-17T03:05:53.227Z,39.68
2022-08-17T03:08:25.608Z,39.88
2022-08-17T03:10:57.194Z,39.93
2022-08-17T03:13:28.478Z,39.81
2022-08-17T03:15:59.820Z,39.62
2022-08-17T03:18:30.737Z,39.73
2022-08-17T03:21:04.482Z,39.81
2022-08-17T03:23:40.981Z,39.94
2022-08-17T03:26:15.564Z,39.75
2022-08-17T03:28:47.063Z,39.91
2022-08-17T03:31:18.449Z,40.02
2022-08-17T03:33:49.450Z,39.97
2022-08-17T03:36:20.376Z,39.95
2022-08-17T03:38:51.793Z,40.05
2022-08-17T03:41:23.105Z,40.14
2022-08-17T03:43:53.856Z,40.03
2022-08-17T03:46:42.446Z,40.14
2022-08-17T03:49:30.831Z,39.90
2022-08-17T03:52:19.328Z,40.26
2022-08-17T03:55:08.074Z,40.36
2022-08-17T03:57:40.081Z,40.06
2022-08-17T04:00:12.640Z,39.70
2022-08-17T04:02:45.210Z,39.82
2022-08-17T04:05:16.363Z,39.77
2022-08-17T04:07:47.121Z,40.01
2022-08-17T04:10:18.079Z,40.04
2022-08-17T04:12:52.921Z,40.07
2022-08-17T04:15:24.433Z,40.02
2022-08-17T04:17:56.022Z,40.12
2022-08-17T04:20:27.992Z,40.01
2022-08-17T04:23:04.931Z,40.11
2022-08-17T04:25:37.549Z,40.57
2022-08-17T04:28:16.135Z,40.79
2022-08-17T04:30:48.454Z,40.91
2022-08-17T04:33:24.069Z,40.74
2022-08-17T04:35:56.883Z,40.70
2022-08-17T04:38:29.413Z,40.84
2022-08-17T04:41:18.502Z,40.72
2022-08-17T04:43:50.545Z,40.83
2022-08-17T04:46:24.718Z,40.72
2022-08-17T04:48:58.488Z,40.26
2022-08-17T04:51:32.444Z,39.91
2022-08-17T04:54:06.496Z,40.01
2022-08-17T04:56:38.591Z,39.78
2022-08-17T04:59:11.101Z,39.59
2022-08-17T05:01:45.802Z,39.43
2022-08-17T05:04:21.350Z,39.33
2022-08-17T05:07:05.760Z,39.02
2022-08-17T05:09:36.802Z,38.94
2022-08-17T05:12:08.579Z,38.71
2022-08-17T05:14:41.357Z,38.81
2022-08-17T05:17:12.232Z,38.70
2022-08-17T05:19:43.412Z,38.74
2022-08-17T05:22:15.307Z,38.53
2022-08-17T05:24:53.728Z,38.58
2022-08-17T05:27:29.821Z,38.72
2022-08-17T05:30:07.238Z,38.63
2022-08-17T05:32:40.363Z,38.60
2022-08-17T05:35:10.562Z,38.59
2022-08-17T05:37:41.530Z,38.58
2022-08-17T05:40:14.304Z,38.55
2022-08-17T05:42:45.041Z,38.34
2022-08-17T05:45:23.629Z,38.68
2022-08-17T05:48:10.349Z,38.59
2022-08-17T05:50:57.194Z,38.62
2022-08-17T05:53:40.314Z,38.74
2022-08-17T05:56:29.754Z,38.79
2022-08-17T05:59:12.513Z,38.74
2022-08-17T06:01:49.729Z,38.87
2022-08-17T06:04:31.952Z,38.84
2022-08-17T06:07:13.302Z,38.93
2022-08-17T06:09:51.000Z,38.91
2022-08-17T06:12:41.182Z,38.82
2022-08-17T06:15:29.889Z,38.89
2022-08-17T06:18:05.064Z,38.96
2022-08-17T06:20:45.407Z,38.96
2022-08-17T06:23:22.592Z,39.07
2022-08-17T06:25:59.043Z,39.13
2022-08-17T06:28:37.652Z,39.07
2022-08-17T06:31:29.362Z,38.88
2022-08-17T06:34:02.856Z,39.14
2022-08-17T06:36:49.050Z,39.09
2022-08-17T06:39:35.996Z,39.10
2022-08-17T06:43:02.814Z,39.04
2022-08-17T06:45:18.108Z,39.04
2022-08-17T06:47:56.771Z,39.05
2022-08-17T06:50:36.018Z,39.07
2022-08-17T06:53:17.918Z,39.10
2022-08-17T06:55:54.714Z,38.87
2022-08-17T06:58:29.656Z,38.99
2022-08-17T07:01:07.382Z,38.89
2022-08-17T07:03:54.821Z,38.92
2022-08-17T07:06:30.576Z,38.76
2022-08-17T07:09:08.971Z,38.75
2022-08-17T07:11:44.884Z,38.78
2022-08-17T07:14:28.920Z,38.76
2022-08-17T07:17:03.092Z,38.71
2022-08-17T07:19:36.912Z,38.62
2022-08-17T07:22:16.072Z,38.69
2022-08-17T07:24:51.733Z,38.56
2022-08-17T07:27:26.907Z,38.64
2022-08-17T07:30:08.042Z,38.52
2022-08-17T07:32:45.421Z,38.58
2022-08-17T07:35:22.186Z,38.42
2022-08-17T07:38:25.008Z,38.46
2022-08-17T07:41:06.520Z,38.55
2022-08-17T07:43:46.622Z,38.40
2022-08-17T07:46:38.711Z,38.19
2022-08-17T07:49:26.080Z,38.53
2022-08-17T07:52:47.944Z,38.36
2022-08-17T07:54:56.187Z,38.15
2022-08-17T07:57:33.733Z,38.29
2022-08-17T08:00:26.619Z,38.35
2022-08-17T08:03:22.142Z,38.36
2022-08-17T08:06:00.370Z,38.13
2022-08-17T08:08:51.912Z,38.39
2022-08-17T08:11:34.843Z,38.18
2022-08-17T08:14:28.387Z,38.05
2022-08-17T08:17:02.164Z,37.98
2022-08-17T08:19:34.241Z,38.22
2022-08-17T08:22:11.202Z,38.20
2022-08-17T08:25:03.392Z,37.91
2022-08-17T08:27:48.726Z,38.18
2022-08-17T08:30:19.336Z,38.30
2022-08-17T08:33:10.341Z,38.30
2022-08-17T08:35:47.791Z,38.20
2022-08-17T08:38:30.920Z,37.97
2022-08-17T08:41:19.362Z,37.60
2022-08-17T08:44:01.026Z,37.93
2022-08-17T08:47:00.535Z,37.96
2022-08-17T08:50:05.904Z,37.81
2022-08-17T08:53:01.148Z,38.07
2022-08-17T08:55:40.711Z,37.84
2022-08-17T08:58:31.366Z,37.76
2022-08-17T09:01:17.225Z,37.94
2022-08-17T09:04:24.812Z,37.83
2022-08-17T09:07:09.399Z,37.55
2022-08-17T09:09:49.765Z,37.73
2022-08-17T09:12:29.377Z,37.59
2022-08-17T09:15:10.845Z,37.42
2022-08-17T09:18:08.588Z,37.67
2022-08-17T09:20:50.844Z,37.76
2022-08-17T09:23:32.770Z,37.78
2022-08-17T09:26:10.350Z,37.61
2022-08-17T09:28:45.738Z,37.39
2022-08-17T09:31:21.725Z,37.09
2022-08-17T09:33:55.574Z,37.37
2022-08-17T09:36:31.240Z,37.33
2022-08-17T09:39:08.663Z,37.10
2022-08-17T09:41:48.716Z,36.77
2022-08-17T09:44:29.670Z,36.93
2022-08-17T09:47:07.197Z,36.44
2022-08-17T09:49:44.538Z,36.41
2022-08-17T09:52:21.875Z,36.10
2022-08-17T09:54:54.150Z,36.01
2022-08-17T09:57:49.566Z,35.79
2022-08-17T10:00:27.847Z,35.87
2022-08-17T10:03:21.227Z,35.95
2022-08-17T10:05:57.955Z,35.68
2022-08-17T10:08:38.113Z,35.44
2022-08-17T10:11:33.861Z,35.64
2022-08-17T10:14:35.954Z,35.35
2022-08-17T10:17:21.914Z,35.53
2022-08-17T10:19:59.803Z,35.10
2022-08-17T10:22:55.075Z,35.38
2022-08-17T10:26:00.282Z,34.99
2022-08-17T10:28:39.242Z,34.98
2022-08-17T10:31:34.167Z,35.18
2022-08-17T10:34:23.080Z,34.70
2022-08-17T10:37:06.411Z,34.83
2022-08-17T10:39:52.098Z,34.41
2022-08-17T10:42:32.427Z,34.57
2022-08-17T10:45:08.669Z,34.73
2022-08-17T10:48:06.344Z,34.25
2022-08-17T10:51:01.743Z,34.46
2022-08-17T10:53:57.453Z,34.27
2022-08-17T10:56:43.003Z,34.14
2022-08-17T10:59:48.492Z,34.27
2022-08-17T11:02:31.681Z,34.24
2022-08-17T11:05:18.945Z,34.20
2022-08-17T11:08:14.402Z,34.24
2022-08-17T11:11:06.437Z,33.93
2022-08-17T11:13:48.635Z,33.67
2022-08-17T11:16:38.998Z,33.32
2022-08-17T11:19:34.829Z,33.33
2022-08-17T11:22:23.054Z,33.14
2022-08-17T11:24:55.954Z,33.02
2022-08-17T11:27:31.168Z,32.90
2022-08-17T11:30:04.838Z,32.77
2022-08-17T11:32:47.330Z,32.57
2022-08-17T11:35:35.345Z,32.63
2022-08-17T11:38:19.818Z,32.52
2022-08-17T11:41:09.956Z,32.52
2022-08-17T11:44:18.972Z,32.32
2022-08-17T11:47:27.323Z,32.22
2022-08-17T11:50:35.313Z,32.05
2022-08-17T11:53:06.812Z,31.95
2022-08-17T11:56:05.214Z,31.88
2022-08-17T11:58:40.051Z,31.91
2022-08-17T12:01:13.820Z,32.06
2022-08-17T12:03:57.070Z,31.94
2022-08-17T12:06:34.656Z,31.96
2022-08-17T12:09:13.227Z,31.96
2022-08-17T12:11:56.305Z,31.85
2022-08-17T12:15:08.791Z,32.06
2022-08-17T12:17:41.030Z,32.05
2022-08-17T12:20:21.556Z,32.02
2022-08-17T12:23:04.650Z,31.85
2022-08-17T12:25:40.334Z,31.89
2022-08-17T12:28:23.781Z,31.84
2022-08-17T12:30:57.296Z,31.89
2022-08-17T12:33:29.162Z,31.87
2022-08-17T12:36:03.095Z,31.86
2022-08-17T12:38:37.053Z,31.68
2022-08-17T12:41:23.693Z,31.77
2022-08-17T12:44:02.740Z,31.92
2022-08-17T12:46:46.515Z,31.90
2022-08-17T12:49:23.732Z,31.85
2022-08-17T12:52:01.397Z,31.67
2022-08-17T12:54:37.769Z,31.62
2022-08-17T12:57:12.702Z,31.66
2022-08-17T12:59:48.000Z,31.48
2022-08-17T13:02:29.947Z,31.37
2022-08-17T13:05:03.038Z,31.36
2022-08-17T13:07:35.208Z,31.34
2022-08-17T13:10:07.246Z,31.47
2022-08-17T13:12:40.082Z,31.30
2022-08-17T13:15:18.299Z,31.25
2022-08-17T13:18:05.821Z,31.18
2022-08-17T13:20:38.790Z,31.44
2022-08-17T13:23:12.651Z,31.24
2022-08-17T13:25:46.797Z,31.35
2022-08-17T13:28:30.646Z,31.10
2022-08-17T13:31:33.402Z,30.68
2022-08-17T13:34:19.427Z,30.70
2022-08-17T13:36:52.231Z,30.78
2022-08-17T13:39:26.302Z,30.67
2022-08-17T13:41:57.989Z,30.64
2022-08-17T13:44:37.920Z,30.80
2022-08-17T13:47:19.721Z,30.76
2022-08-17T13:49:51.791Z,30.65
2022-08-17T13:52:39.292Z,30.73
2022-08-17T13:55:18.075Z,30.14
2022-08-17T13:58:06.654Z,30.08
2022-08-17T14:00:39.598Z,30.05
2022-08-17T14:03:10.743Z,30.07
2022-08-17T14:05:42.678Z,29.99
2022-08-17T14:08:15.922Z,29.98
2022-08-17T14:10:50.836Z,30.08
2022-08-17T14:13:21.777Z,30.09
2022-08-17T14:15:53.957Z,30.05
2022-08-17T14:18:35.723Z,30.20
2022-08-17T14:21:17.987Z,30.26
2022-08-17T14:23:54.757Z,30.28
2022-08-17T14:26:26.425Z,30.46
2022-08-17T14:28:57.396Z,30.44
2022-08-17T14:31:31.864Z,30.41
2022-08-17T14:34:06.336Z,30.31
2022-08-17T14:36:37.509Z,30.43
2022-08-17T14:39:08.837Z,30.33
2022-08-17T14:41:40.914Z,30.46
2022-08-17T14:44:13.253Z,30.31
2022-08-17T14:46:46.067Z,30.40
2022-08-17T14:49:17.421Z,30.61
2022-08-17T14:51:48.486Z,30.38
2022-08-17T14:54:28.768Z,30.49
2022-08-17T14:57:24.750Z,30.66
2022-08-17T14:59:57.927Z,30.71
2022-08-17T15:02:30.827Z,30.74
2022-08-17T15:05:06.394Z,30.55
2022-08-17T15:07:37.168Z,30.53
2022-08-17T15:10:09.954Z,30.50
2022-08-17T15:12:41.328Z,30.43
2022-08-17T15:15:15.062Z,30.40
2022-08-17T15:17:46.333Z,30.32
2022-08-17T15:20:19.409Z,30.35
2022-08-17T15:22:50.235Z,30.33
2022-08-17T15:25:22.452Z,30.32
2022-08-17T15:27:54.237Z,30.44
2022-08-17T15:30:25.812Z,30.35
2022-08-17T15:32:57.664Z,30.41
2022-08-17T15:35:30.927Z,30.41
2022-08-17T15:38:10.662Z,30.47
2022-08-17T15:40:46.895Z,30.59
2022-08-17T15:43:23.452Z,30.56
2022-08-17T15:46:05.616Z,30.61
2022-08-17T15:48:43.413Z,30.66
2022-08-17T15:51:18.678Z,30.86
2022-08-17T15:53:51.689Z,30.87
2022-08-17T15:56:22.775Z,30.68
2022-08-17T15:58:55.150Z,30.61
2022-08-17T16:02:29.848Z,30.68
2022-08-17T16:04:30.084Z,30.61
2022-08-17T16:07:02.250Z,30.76
2022-08-17T16:09:33.054Z,30.83
2022-08-17T16:12:13.867Z,30.69
2022-08-17T16:14:45.155Z,30.74
2022-08-17T16:17:39.762Z,30.80
2022-08-17T16:20:10.083Z,30.87
2022-08-17T16:22:52.915Z,30.86
2022-08-17T16:25:38.258Z,30.92
2022-08-17T16:28:20.818Z,30.84
2022-08-17T16:30:51.690Z,30.96
2022-08-17T16:33:22.673Z,30.89
2022-08-17T16:35:53.512Z,30.78
2022-08-17T16:38:24.409Z,30.75
2022-08-17T16:40:55.323Z,30.86
2022-08-17T16:43:26.265Z,30.86
2022-08-17T16:45:57.388Z,30.65
2022-08-17T16:48:29.086Z,30.22
2022-08-17T16:51:04.191Z,30.22
2022-08-17T16:53:35.373Z,30.24
2022-08-17T16:56:07.575Z,30.20
2022-08-17T16:58:41.150Z,30.36
2022-08-17T17:01:13.948Z,30.48
2022-08-17T17:03:48.038Z,30.70
2022-08-17T17:06:25.799Z,30.77
2022-08-17T17:08:59.000Z,30.91
2022-08-17T17:11:34.549Z,30.93
2022-08-17T17:14:08.254Z,31.00
2022-08-17T17:16:46.437Z,31.09
2022-08-17T17:19:26.314Z,31.18
2022-08-17T17:22:17.235Z,31.22
2022-08-17T17:24:57.463Z,31.34
2022-08-17T17:27:37.588Z,31.45
2022-08-17T17:30:12.133Z,31.53
2022-08-17T17:32:50.629Z,31.61
2022-08-17T17:35:27.599Z,31.71
2022-08-17T17:38:00.829Z,31.86
2022-08-17T17:40:37.943Z,31.87
2022-08-17T17:43:36.971Z,32.06
2022-08-17T17:46:28.521Z,32.01
2022-08-17T17:49:00.817Z,32.22
2022-08-17T17:52:03.588Z,32.16
2022-08-17T17:54:47.773Z,32.25
2022-08-17T17:57:26.258Z,32.08
2022-08-17T18:00:05.589Z,32.35
2022-08-17T18:02:51.728Z,31.52
2022-08-17T18:05:48.510Z,31.14
2022-08-17T18:08:35.279Z,30.98
2022-08-17T18:11:35.010Z,31.25
2022-08-17T18:14:17.607Z,31.23
2022-08-17T18:16:55.172Z,31.23
2022-08-17T18:19:28.471Z,31.31
2022-08-17T18:22:07.653Z,31.43
2022-08-17T18:24:45.826Z,31.48
2022-08-17T18:27:27.806Z,31.57
2022-08-17T18:30:00.022Z,31.59
2022-08-17T18:32:36.563Z,31.87
2022-08-17T18:35:30.317Z,32.05
2022-08-17T18:38:21.827Z,31.77
2022-08-17T18:41:03.021Z,31.99
2022-08-17T18:43:53.256Z,31.95
2022-08-17T18:46:35.271Z,31.86
2022-08-17T18:49:25.158Z,31.80
2022-08-17T18:52:13.088Z,31.82
2022-08-17T18:55:01.047Z,31.86
2022-08-17T18:57:35.468Z,31.89
2022-08-17T19:00:14.690Z,31.95
2022-08-17T19:02:52.346Z,31.96
2022-08-17T19:05:37.970Z,31.92
2022-08-17T19:08:25.048Z,31.56
2022-08-17T19:10:59.565Z,31.46
2022-08-17T19:13:32.933Z,31.37
2022-08-17T19:16:13.864Z,31.23
2022-08-17T19:18:51.159Z,31.10
2022-08-17T19:21:26.614Z,31.18
2022-08-17T19:24:04.601Z,31.26
2022-08-17T19:26:50.586Z,31.66
2022-08-17T19:29:32.260Z,31.86
2022-08-17T19:32:05.500Z,31.89
2022-08-17T19:34:39.570Z,32.31
2022-08-17T19:37:31.126Z,32.08
2022-08-17T19:40:29.288Z,32.41
2022-08-17T19:43:13.078Z,32.48
2022-08-17T19:46:01.800Z,32.79
2022-08-17T19:48:47.237Z,32.72
2022-08-17T19:51:29.573Z,33.08
2022-08-17T19:54:07.113Z,32.94
2022-08-17T19:56:47.898Z,32.94
2022-08-17T19:59:35.971Z,33.00
2022-08-17T20:02:20.977Z,33.06
2022-08-17T20:04:54.456Z,33.11
2022-08-17T20:07:29.754Z,32.99
2022-08-17T20:10:06.603Z,32.83
2022-08-17T20:12:40.108Z,32.79
2022-08-17T20:15:13.165Z,33.06
2022-08-17T20:17:47.340Z,33.16
2022-08-17T20:20:32.022Z,33.50
2022-08-17T20:23:12.470Z,33.58
2022-08-17T20:25:49.221Z,33.79
2022-08-17T20:28:27.948Z,33.80
2022-08-17T20:30:59.550Z,33.90
2022-08-17T20:33:33.595Z,33.96
2022-08-17T20:36:17.106Z,33.99
2022-08-17T20:38:50.544Z,33.92
2022-08-17T20:41:23.369Z,34.01
2022-08-17T20:44:07.637Z,33.89
2022-08-17T20:47:02.408Z,34.04
2022-08-17T20:49:48.596Z,34.00
2022-08-17T20:52:48.440Z,34.18
2022-08-17T20:55:54.803Z,34.03
2022-08-17T20:58:50.148Z,34.07
2022-08-17T21:01:38.993Z,34.04
2022-08-17T21:04:47.548Z,34.14
2022-08-17T21:07:30.239Z,34.13
2022-08-17T21:10:19.925Z,34.29
2022-08-17T21:12:56.371Z,34.01
2022-08-17T21:15:37.643Z,34.22
2022-08-17T21:18:19.522Z,34.28
2022-08-17T21:21:14.066Z,34.24
2022-08-17T21:24:03.706Z,34.17
2022-08-17T21:26:50.814Z,34.28
2022-08-17T21:29:31.256Z,34.16
2022-08-17T21:32:28.709Z,34.36
2022-08-17T21:35:24.703Z,34.15
2022-08-17T21:38:03.545Z,34.16
2022-08-17T21:40:36.261Z,34.11
2022-08-17T21:43:18.403Z,34.22
2022-08-17T21:45:58.679Z,34.20
2022-08-17T21:48:32.529Z,34.37
2022-08-17T21:51:10.607Z,34.18
2022-08-17T21:53:49.340Z,34.23
2022-08-17T21:56:26.855Z,34.23
2022-08-17T21:59:02.332Z,34.32
2022-08-17T22:01:35.649Z,34.35
2022-08-17T22:04:19.561Z,34.18
2022-08-17T22:06:57.293Z,34.32
2022-08-17T22:09:31.901Z,34.30
2022-08-17T22:12:08.082Z,34.26
2022-08-17T22:14:52.155Z,34.16
2022-08-17T22:17:26.818Z,34.21
2022-08-17T22:20:00.795Z,34.20
2022-08-17T22:22:55.733Z,34.31
2022-08-17T22:25:29.667Z,34.35
2022-08-17T22:28:02.207Z,34.21
2022-08-17T22:30:39.737Z,34.30
2022-08-17T22:33:39.605Z,34.29
2022-08-17T22:36:29.190Z,34.19
2022-08-17T22:39:02.294Z,34.34
2022-08-17T22:41:44.363Z,34.18
2022-08-17T22:44:23.324Z,34.20
2022-08-17T22:47:11.325Z,34.28
2022-08-17T22:49:54.728Z,34.36
2022-08-17T22:52:32.940Z,34.32
2022-08-17T22:55:25.657Z,34.44
2022-08-17T22:58:14.038Z,34.23
2022-08-17T23:00:48.499Z,34.21
2022-08-17T23:03:22.275Z,34.25
2022-08-17T23:06:06.724Z,34.17
2022-08-17T23:08:44.246Z,34.32
2022-08-17T23:11:15.116Z,34.34
2022-08-17T23:13:45.945Z,34.50
2022-08-17T23:16:16.668Z,34.43
2022-08-17T23:18:49.630Z,34.41
2022-08-17T23:21:27.099Z,34.35
2022-08-17T23:23:59.149Z,34.40
2022-08-17T23:26:30.390Z,34.49
2022-08-17T23:29:04.508Z,34.45
2022-08-17T23:31:37.375Z,34.45
2022-08-17T23:34:11.449Z,34.49
2022-08-17T23:36:51.305Z,34.56
2022-08-17T23:39:27.508Z,34.55
2022-08-17T23:42:00.312Z,34.59
2022-08-17T23:44:31.182Z,34.53
2022-08-17T23:47:02.532Z,34.53
2022-08-17T23:49:33.953Z,34.47
2022-08-17T23:52:09.890Z,34.44
2022-08-17T23:54:44.622Z,34.60
2022-08-17T23:57:17.760Z,34.56
2022-08-17T23:59:47.022Z,34.59
